sensor_id;sensor_type;location;lat;lon;timestamp;P1;durP1;ratioP1;P2;durP2;ratioP2
20271;SDS011;10295;49.812;9.866;2022-10-22T00:00:40;37.00;;;17.83;;
20271;SDS011;10295;49.812;9.866;2022-10-22T00:03:07;40.03;;;17.27;;
20271;SDS011;10295;49.812;9.866;2022-10-22T00:05:35;41.70;;;17.30;;
20271;SDS011;10295;49.812;9.866;2022-10-22T00:08:02;41.77;;;16.33;;
20271;SDS011;10295;49.812;9.866;2022-10-22T00:10:29;35.57;;;16.50;;
20271;SDS011;10295;49.812;9.866;2022-10-22T00:12:56;37.97;;;16.70;;
20271;SDS011;10295;49.812;9.866;2022-10-22T00:15:23;46.67;;;16.93;;
20271;SDS011;10295;49.812;9.866;2022-10-22T00:17:50;33.03;;;15.47;;
20271;SDS011;10295;49.812;9.866;2022-10-22T00:20:17;30.63;;;14.47;;
20271;SDS011;10295;49.812;9.866;2022-10-22T00:22:45;32.00;;;14.17;;
20271;SDS011;10295;49.812;9.866;2022-10-22T00:25:12;34.43;;;14.90;;
20271;SDS011;10295;49.812;9.866;2022-10-22T00:27:39;35.70;;;15.03;;
20271;SDS011;10295;49.812;9.866;2022-10-22T00:30:07;29.60;;;15.27;;
20271;SDS011;10295;49.812;9.866;2022-10-22T00:32:34;34.43;;;15.97;;
20271;SDS011;10295;49.812;9.866;2022-10-22T00:35:01;32.63;;;14.77;;
20271;SDS011;10295;49.812;9.866;2022-10-22T00:37:28;29.63;;;13.37;;
20271;SDS011;10295;49.812;9.866;2022-10-22T00:39:55;31.27;;;14.43;;
20271;SDS011;10295;49.812;9.866;2022-10-22T00:42:23;34.43;;;15.53;;
20271;SDS011;10295;49.812;9.866;2022-10-22T00:45:13;30.80;;;15.13;;
20271;SDS011;10295;49.812;9.866;2022-10-22T00:50:19;32.57;;;15.47;;
20271;SDS011;10295;49.812;9.866;2022-10-22T00:52:47;33.70;;;15.17;;
20271;SDS011;10295;49.812;9.866;2022-10-22T00:55:15;31.20;;;14.70;;
20271;SDS011;10295;49.812;9.866;2022-10-22T00:57:43;30.30;;;12.63;;
20271;SDS011;10295;49.812;9.866;2022-10-22T01:00:10;31.70;;;13.67;;
20271;SDS011;10295;49.812;9.866;2022-10-22T01:02:38;36.77;;;14.87;;
20271;SDS011;10295;49.812;9.866;2022-10-22T01:05:05;38.57;;;14.20;;
20271;SDS011;10295;49.812;9.866;2022-10-22T01:07:34;41.13;;;16.00;;
20271;SDS011;10295;49.812;9.866;2022-10-22T01:20:18;37.60;;;14.87;;
20271;SDS011;10295;49.812;9.866;2022-10-22T01:25:21;38.67;;;16.07;;
20271;SDS011;10295;49.812;9.866;2022-10-22T01:30:28;27.80;;;14.73;;
20271;SDS011;10295;49.812;9.866;2022-10-22T01:32:57;35.73;;;15.40;;
20271;SDS011;10295;49.812;9.866;2022-10-22T01:35:26;34.03;;;15.37;;
20271;SDS011;10295;49.812;9.866;2022-10-22T01:37:56;34.07;;;14.17;;
20271;SDS011;10295;49.812;9.866;2022-10-22T01:40:24;32.53;;;14.50;;
20271;SDS011;10295;49.812;9.866;2022-10-22T01:42:53;30.83;;;13.23;;
20271;SDS011;10295;49.812;9.866;2022-10-22T01:45:21;24.83;;;11.63;;
20271;SDS011;10295;49.812;9.866;2022-10-22T01:47:55;16.13;;;6.73;;
20271;SDS011;10295;49.812;9.866;2022-10-22T01:50:26;18.07;;;6.40;;
20271;SDS011;10295;49.812;9.866;2022-10-22T01:55:40;18.07;;;6.10;;
20271;SDS011;10295;49.812;9.866;2022-10-22T02:00:45;15.80;;;5.30;;
20271;SDS011;10295;49.812;9.866;2022-10-22T02:03:15;15.83;;;4.93;;
20271;SDS011;10295;49.812;9.866;2022-10-22T02:05:50;12.77;;;4.57;;
20271;SDS011;10295;49.812;9.866;2022-10-22T02:08:21;11.67;;;4.30;;
20271;SDS011;10295;49.812;9.866;2022-10-22T02:10:49;15.77;;;4.47;;
20271;SDS011;10295;49.812;9.866;2022-10-22T02:13:17;14.80;;;4.70;;
20271;SDS011;10295;49.812;9.866;2022-10-22T02:15:45;13.13;;;5.07;;
20271;SDS011;10295;49.812;9.866;2022-10-22T02:18:12;12.60;;;4.47;;
20271;SDS011;10295;49.812;9.866;2022-10-22T02:20:41;12.77;;;4.80;;
20271;SDS011;10295;49.812;9.866;2022-10-22T02:23:08;13.50;;;5.00;;
20271;SDS011;10295;49.812;9.866;2022-10-22T02:25:37;14.27;;;5.03;;
20271;SDS011;10295;49.812;9.866;2022-10-22T02:30:33;14.70;;;4.83;;
20271;SDS011;10295;49.812;9.866;2022-10-22T02:33:37;16.33;;;5.60;;
20271;SDS011;10295;49.812;9.866;2022-10-22T02:35:55;18.23;;;7.90;;
20271;SDS011;10295;49.812;9.866;2022-10-22T02:38:24;22.63;;;8.50;;
20271;SDS011;10295;49.812;9.866;2022-10-22T02:40:51;18.43;;;7.07;;
20271;SDS011;10295;49.812;9.866;2022-10-22T02:43:18;13.43;;;5.27;;
20271;SDS011;10295;49.812;9.866;2022-10-22T02:45:46;15.47;;;5.33;;
20271;SDS011;10295;49.812;9.866;2022-10-22T02:48:13;12.87;;;4.70;;
20271;SDS011;10295;49.812;9.866;2022-10-22T02:50:40;10.60;;;4.23;;
20271;SDS011;10295;49.812;9.866;2022-10-22T02:53:07;13.53;;;4.07;;
20271;SDS011;10295;49.812;9.866;2022-10-22T02:55:34;14.37;;;4.27;;
20271;SDS011;10295;49.812;9.866;2022-10-22T02:58:01;14.60;;;4.07;;
20271;SDS011;10295;49.812;9.866;2022-10-22T03:00:28;13.37;;;3.83;;
20271;SDS011;10295;49.812;9.866;2022-10-22T03:02:55;16.83;;;3.80;;
20271;SDS011;10295;49.812;9.866;2022-10-22T03:05:22;11.97;;;3.80;;
20271;SDS011;10295;49.812;9.866;2022-10-22T03:07:50;9.03;;;3.40;;
20271;SDS011;10295;49.812;9.866;2022-10-22T03:10:17;10.00;;;3.33;;
20271;SDS011;10295;49.812;9.866;2022-10-22T03:12:44;11.77;;;3.40;;
20271;SDS011;10295;49.812;9.866;2022-10-22T03:15:11;8.20;;;3.20;;
20271;SDS011;10295;49.812;9.866;2022-10-22T03:17:38;8.57;;;3.50;;
20271;SDS011;10295;49.812;9.866;2022-10-22T03:20:06;8.13;;;3.13;;
20271;SDS011;10295;49.812;9.866;2022-10-22T03:22:34;9.20;;;3.07;;
20271;SDS011;10295;49.812;9.866;2022-10-22T03:25:03;8.97;;;2.70;;
20271;SDS011;10295;49.812;9.866;2022-10-22T03:27:33;7.50;;;2.63;;
20271;SDS011;10295;49.812;9.866;2022-10-22T03:30:01;10.47;;;2.90;;
20271;SDS011;10295;49.812;9.866;2022-10-22T03:32:29;7.23;;;2.53;;
20271;SDS011;10295;49.812;9.866;2022-10-22T03:34:56;9.77;;;2.40;;
20271;SDS011;10295;49.812;9.866;2022-10-22T03:37:28;7.13;;;2.13;;
20271;SDS011;10295;49.812;9.866;2022-10-22T03:39:55;8.10;;;2.33;;
20271;SDS011;10295;49.812;9.866;2022-10-22T03:42:22;8.70;;;2.20;;
20271;SDS011;10295;49.812;9.866;2022-10-22T03:44:50;9.13;;;2.30;;
20271;SDS011;10295;49.812;9.866;2022-10-22T03:47:17;9.90;;;2.03;;
20271;SDS011;10295;49.812;9.866;2022-10-22T03:49:44;4.93;;;1.90;;
20271;SDS011;10295;49.812;9.866;2022-10-22T03:52:12;8.27;;;1.90;;
20271;SDS011;10295;49.812;9.866;2022-10-22T03:54:40;5.77;;;1.80;;
20271;SDS011;10295;49.812;9.866;2022-10-22T03:57:08;10.23;;;1.90;;
20271;SDS011;10295;49.812;9.866;2022-10-22T03:59:39;5.93;;;2.10;;
20271;SDS011;10295;49.812;9.866;2022-10-22T04:02:07;12.33;;;2.30;;
20271;SDS011;10295;49.812;9.866;2022-10-22T04:04:34;7.97;;;2.00;;
20271;SDS011;10295;49.812;9.866;2022-10-22T04:07:02;6.17;;;2.00;;
20271;SDS011;10295;49.812;9.866;2022-10-22T04:09:30;9.57;;;2.10;;
20271;SDS011;10295;49.812;9.866;2022-10-22T04:11:57;6.43;;;2.27;;
20271;SDS011;10295;49.812;9.866;2022-10-22T04:14:25;11.77;;;2.13;;
20271;SDS011;10295;49.812;9.866;2022-10-22T04:16:52;10.07;;;2.23;;
20271;SDS011;10295;49.812;9.866;2022-10-22T04:19:19;5.50;;;2.13;;
20271;SDS011;10295;49.812;9.866;2022-10-22T04:21:46;6.17;;;2.30;;
20271;SDS011;10295;49.812;9.866;2022-10-22T04:24:14;6.20;;;2.10;;
20271;SDS011;10295;49.812;9.866;2022-10-22T04:26:41;8.53;;;2.33;;
20271;SDS011;10295;49.812;9.866;2022-10-22T04:29:08;7.07;;;2.50;;
20271;SDS011;10295;49.812;9.866;2022-10-22T04:31:41;7.10;;;2.10;;
20271;SDS011;10295;49.812;9.866;2022-10-22T04:34:08;7.80;;;2.30;;
20271;SDS011;10295;49.812;9.866;2022-10-22T04:36:35;8.23;;;2.40;;
20271;SDS011;10295;49.812;9.866;2022-10-22T04:39:02;12.70;;;2.80;;
20271;SDS011;10295;49.812;9.866;2022-10-22T04:41:34;6.43;;;2.50;;
20271;SDS011;10295;49.812;9.866;2022-10-22T04:44:01;8.67;;;2.70;;
20271;SDS011;10295;49.812;9.866;2022-10-22T04:46:29;6.87;;;2.33;;
20271;SDS011;10295;49.812;9.866;2022-10-22T04:48:57;6.90;;;2.53;;
20271;SDS011;10295;49.812;9.866;2022-10-22T04:51:24;9.83;;;2.60;;
20271;SDS011;10295;49.812;9.866;2022-10-22T04:53:52;10.20;;;2.67;;
20271;SDS011;10295;49.812;9.866;2022-10-22T04:56:20;9.00;;;2.70;;
20271;SDS011;10295;49.812;9.866;2022-10-22T04:58:48;8.97;;;2.50;;
20271;SDS011;10295;49.812;9.866;2022-10-22T05:01:19;10.20;;;3.03;;
20271;SDS011;10295;49.812;9.866;2022-10-22T05:03:47;8.03;;;2.83;;
20271;SDS011;10295;49.812;9.866;2022-10-22T05:06:15;10.90;;;3.03;;
20271;SDS011;10295;49.812;9.866;2022-10-22T05:08:42;9.93;;;3.10;;
20271;SDS011;10295;49.812;9.866;2022-10-22T05:11:11;7.47;;;3.10;;
20271;SDS011;10295;49.812;9.866;2022-10-22T05:13:38;9.10;;;2.90;;
20271;SDS011;10295;49.812;9.866;2022-10-22T05:16:05;9.10;;;3.30;;
20271;SDS011;10295;49.812;9.866;2022-10-22T05:18:36;11.60;;;3.03;;
20271;SDS011;10295;49.812;9.866;2022-10-22T05:21:04;9.03;;;3.20;;
20271;SDS011;10295;49.812;9.866;2022-10-22T05:23:33;11.40;;;3.40;;
20271;SDS011;10295;49.812;9.866;2022-10-22T05:26:01;11.60;;;3.50;;
20271;SDS011;10295;49.812;9.866;2022-10-22T05:28:29;9.90;;;3.27;;
20271;SDS011;10295;49.812;9.866;2022-10-22T05:30:56;8.43;;;3.23;;
20271;SDS011;10295;49.812;9.866;2022-10-22T05:33:24;14.17;;;3.43;;
20271;SDS011;10295;49.812;9.866;2022-10-22T05:35:52;9.93;;;3.30;;
20271;SDS011;10295;49.812;9.866;2022-10-22T05:38:19;11.37;;;3.37;;
20271;SDS011;10295;49.812;9.866;2022-10-22T05:40:46;10.30;;;3.43;;
20271;SDS011;10295;49.812;9.866;2022-10-22T05:43:13;8.10;;;3.47;;
20271;SDS011;10295;49.812;9.866;2022-10-22T05:45:41;11.13;;;3.53;;
20271;SDS011;10295;49.812;9.866;2022-10-22T05:48:08;11.00;;;3.83;;
20271;SDS011;10295;49.812;9.866;2022-10-22T05:50:35;8.37;;;3.67;;
20271;SDS011;10295;49.812;9.866;2022-10-22T05:53:04;11.83;;;4.27;;
20271;SDS011;10295;49.812;9.866;2022-10-22T05:55:34;14.00;;;4.10;;
20271;SDS011;10295;49.812;9.866;2022-10-22T05:58:03;11.60;;;4.17;;
20271;SDS011;10295;49.812;9.866;2022-10-22T06:00:31;12.37;;;4.70;;
20271;SDS011;10295;49.812;9.866;2022-10-22T06:02:59;15.87;;;5.53;;
20271;SDS011;10295;49.812;9.866;2022-10-22T06:05:26;14.10;;;4.73;;
20271;SDS011;10295;49.812;9.866;2022-10-22T06:07:53;12.87;;;4.70;;
20271;SDS011;10295;49.812;9.866;2022-10-22T06:10:21;12.03;;;4.70;;
20271;SDS011;10295;49.812;9.866;2022-10-22T06:12:49;14.20;;;5.03;;
20271;SDS011;10295;49.812;9.866;2022-10-22T06:15:17;11.93;;;4.77;;
20271;SDS011;10295;49.812;9.866;2022-10-22T06:17:46;12.73;;;4.40;;
20271;SDS011;10295;49.812;9.866;2022-10-22T06:20:13;10.30;;;4.60;;
20271;SDS011;10295;49.812;9.866;2022-10-22T06:22:40;12.03;;;4.47;;
20271;SDS011;10295;49.812;9.866;2022-10-22T06:25:08;13.37;;;3.63;;
20271;SDS011;10295;49.812;9.866;2022-10-22T06:27:35;13.37;;;3.40;;
20271;SDS011;10295;49.812;9.866;2022-10-22T06:30:02;11.30;;;3.43;;
20271;SDS011;10295;49.812;9.866;2022-10-22T06:32:29;9.67;;;3.20;;
20271;SDS011;10295;49.812;9.866;2022-10-22T06:34:56;9.40;;;3.20;;
20271;SDS011;10295;49.812;9.866;2022-10-22T06:37:24;9.03;;;2.90;;
20271;SDS011;10295;49.812;9.866;2022-10-22T06:39:51;13.03;;;2.80;;
20271;SDS011;10295;49.812;9.866;2022-10-22T06:42:18;9.03;;;3.40;;
20271;SDS011;10295;49.812;9.866;2022-10-22T06:44:45;11.10;;;2.40;;
20271;SDS011;10295;49.812;9.866;2022-10-22T06:47:12;6.37;;;2.40;;
20271;SDS011;10295;49.812;9.866;2022-10-22T06:49:39;7.40;;;2.00;;
20271;SDS011;10295;49.812;9.866;2022-10-22T06:52:07;10.10;;;2.30;;
20271;SDS011;10295;49.812;9.866;2022-10-22T06:54:34;7.50;;;2.00;;
20271;SDS011;10295;49.812;9.866;2022-10-22T06:57:02;6.57;;;1.73;;
20271;SDS011;10295;49.812;9.866;2022-10-22T06:59:29;5.73;;;1.83;;
20271;SDS011;10295;49.812;9.866;2022-10-22T07:01:56;9.27;;;2.13;;
20271;SDS011;10295;49.812;9.866;2022-10-22T07:04:23;7.13;;;1.80;;
20271;SDS011;10295;49.812;9.866;2022-10-22T07:06:50;7.57;;;2.10;;
20271;SDS011;10295;49.812;9.866;2022-10-22T07:09:20;6.27;;;1.90;;
20271;SDS011;10295;49.812;9.866;2022-10-22T07:11:47;6.27;;;1.60;;
20271;SDS011;10295;49.812;9.866;2022-10-22T07:14:14;7.83;;;2.10;;
20271;SDS011;10295;49.812;9.866;2022-10-22T07:16:41;5.33;;;1.80;;
20271;SDS011;10295;49.812;9.866;2022-10-22T07:19:10;6.47;;;1.60;;
20271;SDS011;10295;49.812;9.866;2022-10-22T07:21:38;6.17;;;1.70;;
20271;SDS011;10295;49.812;9.866;2022-10-22T07:24:05;7.60;;;1.73;;
20271;SDS011;10295;49.812;9.866;2022-10-22T07:26:32;5.67;;;1.40;;
20271;SDS011;10295;49.812;9.866;2022-10-22T07:28:59;7.53;;;1.73;;
20271;SDS011;10295;49.812;9.866;2022-10-22T07:31:26;9.60;;;1.63;;
20271;SDS011;10295;49.812;9.866;2022-10-22T07:33:54;7.53;;;1.60;;
20271;SDS011;10295;49.812;9.866;2022-10-22T07:36:21;6.07;;;1.40;;
20271;SDS011;10295;49.812;9.866;2022-10-22T07:38:54;6.97;;;1.70;;
20271;SDS011;10295;49.812;9.866;2022-10-22T07:41:21;6.50;;;1.50;;
20271;SDS011;10295;49.812;9.866;2022-10-22T07:43:49;7.20;;;1.50;;
20271;SDS011;10295;49.812;9.866;2022-10-22T07:46:16;6.63;;;1.30;;
20271;SDS011;10295;49.812;9.866;2022-10-22T07:48:43;5.50;;;1.10;;
20271;SDS011;10295;49.812;9.866;2022-10-22T07:51:10;3.73;;;1.13;;
20271;SDS011;10295;49.812;9.866;2022-10-22T07:53:37;6.37;;;1.17;;
20271;SDS011;10295;49.812;9.866;2022-10-22T07:56:05;2.65;;;0.95;;
20271;SDS011;10295;49.812;9.866;2022-10-22T07:58:32;4.57;;;1.05;;
20271;SDS011;10295;49.812;9.866;2022-10-22T08:00:59;1.95;;;0.60;;
20271;SDS011;10295;49.812;9.866;2022-10-22T08:03:27;2.15;;;0.73;;
20271;SDS011;10295;49.812;9.866;2022-10-22T08:05:55;5.43;;;0.80;;
20271;SDS011;10295;49.812;9.866;2022-10-22T08:08:22;4.72;;;1.00;;
20271;SDS011;10295;49.812;9.866;2022-10-22T08:10:55;3.55;;;0.93;;
20271;SDS011;10295;49.812;9.866;2022-10-22T08:13:23;5.47;;;1.00;;
20271;SDS011;10295;49.812;9.866;2022-10-22T08:15:51;6.80;;;1.10;;
20271;SDS011;10295;49.812;9.866;2022-10-22T08:18:22;2.40;;;0.80;;
20271;SDS011;10295;49.812;9.866;2022-10-22T08:20:50;4.50;;;1.42;;
20271;SDS011;10295;49.812;9.866;2022-10-22T08:23:17;5.03;;;1.00;;
20271;SDS011;10295;49.812;9.866;2022-10-22T08:25:49;3.50;;;0.73;;
20271;SDS011;10295;49.812;9.866;2022-10-22T08:28:16;3.22;;;0.88;;
20271;SDS011;10295;49.812;9.866;2022-10-22T08:30:47;4.03;;;0.90;;
20271;SDS011;10295;49.812;9.866;2022-10-22T08:33:14;5.40;;;0.85;;
20271;SDS011;10295;49.812;9.866;2022-10-22T08:35:41;3.55;;;0.70;;
20271;SDS011;10295;49.812;9.866;2022-10-22T08:38:13;3.08;;;0.75;;
20271;SDS011;10295;49.812;9.866;2022-10-22T08:40:40;3.25;;;0.55;;
20271;SDS011;10295;49.812;9.866;2022-10-22T08:50:45;2.08;;;0.70;;
20271;SDS011;10295;49.812;9.866;2022-10-22T08:53:15;4.40;;;0.70;;
20271;SDS011;10295;49.812;9.866;2022-10-22T08:55:43;2.38;;;0.68;;
20271;SDS011;10295;49.812;9.866;2022-10-22T08:58:26;1.70;;;0.52;;
20271;SDS011;10295;49.812;9.866;2022-10-22T09:00:58;2.88;;;0.63;;
20271;SDS011;10295;49.812;9.866;2022-10-22T09:06:12;3.35;;;0.80;;
20271;SDS011;10295;49.812;9.866;2022-10-22T09:08:41;5.45;;;0.80;;
20271;SDS011;10295;49.812;9.866;2022-10-22T09:13:40;5.85;;;1.10;;
20271;SDS011;10295;49.812;9.866;2022-10-22T09:16:18;3.95;;;0.90;;
20271;SDS011;10295;49.812;9.866;2022-10-22T09:18:55;2.40;;;0.70;;
20271;SDS011;10295;49.812;9.866;2022-10-22T09:26:48;3.22;;;0.80;;
20271;SDS011;10295;49.812;9.866;2022-10-22T09:29:16;3.40;;;0.70;;
20271;SDS011;10295;49.812;9.866;2022-10-22T09:31:45;4.68;;;0.93;;
20271;SDS011;10295;49.812;9.866;2022-10-22T09:34:14;3.92;;;0.60;;
20271;SDS011;10295;49.812;9.866;2022-10-22T09:36:41;7.25;;;0.90;;
20271;SDS011;10295;49.812;9.866;2022-10-22T09:39:24;4.47;;;0.75;;
20271;SDS011;10295;49.812;9.866;2022-10-22T09:41:52;4.60;;;0.80;;
20271;SDS011;10295;49.812;9.866;2022-10-22T09:44:19;4.70;;;0.77;;
20271;SDS011;10295;49.812;9.866;2022-10-22T09:46:46;2.30;;;0.65;;
20271;SDS011;10295;49.812;9.866;2022-10-22T09:49:15;6.20;;;0.70;;
20271;SDS011;10295;49.812;9.866;2022-10-22T09:51:50;8.15;;;0.95;;
20271;SDS011;10295;49.812;9.866;2022-10-22T09:54:22;3.55;;;0.90;;
20271;SDS011;10295;49.812;9.866;2022-10-22T09:56:54;6.25;;;0.90;;
20271;SDS011;10295;49.812;9.866;2022-10-22T09:59:26;6.82;;;1.00;;
20271;SDS011;10295;49.812;9.866;2022-10-22T10:02:01;7.28;;;0.88;;
20271;SDS011;10295;49.812;9.866;2022-10-22T10:04:47;7.88;;;1.27;;
20271;SDS011;10295;49.812;9.866;2022-10-22T10:07:16;3.33;;;0.88;;
20271;SDS011;10295;49.812;9.866;2022-10-22T10:09:43;3.28;;;0.90;;
20271;SDS011;10295;49.812;9.866;2022-10-22T10:15:00;5.18;;;1.00;;
20271;SDS011;10295;49.812;9.866;2022-10-22T10:20:04;5.95;;;1.15;;
20271;SDS011;10295;49.812;9.866;2022-10-22T10:22:57;3.38;;;0.73;;
20271;SDS011;10295;49.812;9.866;2022-10-22T10:30:28;8.00;;;1.05;;
20271;SDS011;10295;49.812;9.866;2022-10-22T10:38:15;6.38;;;1.10;;
20271;SDS011;10295;49.812;9.866;2022-10-22T10:40:54;5.47;;;0.80;;
20271;SDS011;10295;49.812;9.866;2022-10-22T10:43:34;4.38;;;0.60;;
20271;SDS011;10295;49.812;9.866;2022-10-22T10:48:55;3.55;;;0.75;;
20271;SDS011;10295;49.812;9.866;2022-10-22T10:56:35;4.18;;;0.80;;
20271;SDS011;10295;49.812;9.866;2022-10-22T10:59:12;10.88;;;0.93;;
20271;SDS011;10295;49.812;9.866;2022-10-22T11:04:33;3.92;;;0.80;;
20271;SDS011;10295;49.812;9.866;2022-10-22T11:07:08;2.38;;;0.70;;
20271;SDS011;10295;49.812;9.866;2022-10-22T11:10:07;4.53;;;0.70;;
20271;SDS011;10295;49.812;9.866;2022-10-22T11:12:37;4.38;;;0.77;;
20271;SDS011;10295;49.812;9.866;2022-10-22T11:15:07;7.32;;;0.82;;
20271;SDS011;10295;49.812;9.866;2022-10-22T11:17:37;5.72;;;1.00;;
20271;SDS011;10295;49.812;9.866;2022-10-22T11:20:11;3.70;;;0.77;;
20271;SDS011;10295;49.812;9.866;2022-10-22T11:22:42;3.28;;;0.70;;
20271;SDS011;10295;49.812;9.866;2022-10-22T11:25:31;10.32;;;1.10;;
20271;SDS011;10295;49.812;9.866;2022-10-22T11:30:35;6.35;;;0.98;;
20271;SDS011;10295;49.812;9.866;2022-10-22T11:33:04;10.48;;;4.25;;
20271;SDS011;10295;49.812;9.866;2022-10-22T11:35:33;4.85;;;0.90;;
20271;SDS011;10295;49.812;9.866;2022-10-22T11:38:02;6.05;;;1.05;;
20271;SDS011;10295;49.812;9.866;2022-10-22T11:40:32;3.88;;;0.90;;
20271;SDS011;10295;49.812;9.866;2022-10-22T11:43:09;8.02;;;0.88;;
20271;SDS011;10295;49.812;9.866;2022-10-22T11:45:38;3.70;;;0.70;;
20271;SDS011;10295;49.812;9.866;2022-10-22T11:53:17;4.88;;;0.93;;
20271;SDS011;10295;49.812;9.866;2022-10-22T11:55:48;5.18;;;1.10;;
20271;SDS011;10295;49.812;9.866;2022-10-22T12:00:56;6.13;;;1.10;;
20271;SDS011;10295;49.812;9.866;2022-10-22T12:16:18;3.60;;;1.00;;
20271;SDS011;10295;49.812;9.866;2022-10-22T12:21:37;2.17;;;0.60;;
20271;SDS011;10295;49.812;9.866;2022-10-22T12:24:04;5.82;;;0.93;;
20271;SDS011;10295;49.812;9.866;2022-10-22T12:26:32;5.47;;;0.85;;
20271;SDS011;10295;49.812;9.866;2022-10-22T12:29:00;5.28;;;0.90;;
20271;SDS011;10295;49.812;9.866;2022-10-22T12:31:28;5.57;;;1.00;;
20271;SDS011;10295;49.812;9.866;2022-10-22T12:34:01;4.80;;;1.00;;
20271;SDS011;10295;49.812;9.866;2022-10-22T12:36:28;8.25;;;1.00;;
20271;SDS011;10295;49.812;9.866;2022-10-22T12:39:07;2.70;;;0.80;;
20271;SDS011;10295;49.812;9.866;2022-10-22T12:41:36;4.70;;;0.80;;
20271;SDS011;10295;49.812;9.866;2022-10-22T12:44:04;3.17;;;0.65;;
20271;SDS011;10295;49.812;9.866;2022-10-22T12:46:34;3.55;;;1.00;;
20271;SDS011;10295;49.812;9.866;2022-10-22T12:49:03;6.30;;;0.90;;
20271;SDS011;10295;49.812;9.866;2022-10-22T12:51:31;4.45;;;0.85;;
20271;SDS011;10295;49.812;9.866;2022-10-22T12:54:01;5.13;;;0.85;;
20271;SDS011;10295;49.812;9.866;2022-10-22T12:56:31;4.63;;;0.90;;
20271;SDS011;10295;49.812;9.866;2022-10-22T12:58:59;4.72;;;0.90;;
20271;SDS011;10295;49.812;9.866;2022-10-22T13:01:28;5.57;;;0.93;;
20271;SDS011;10295;49.812;9.866;2022-10-22T13:06:44;3.95;;;0.88;;
20271;SDS011;10295;49.812;9.866;2022-10-22T13:09:18;4.70;;;0.90;;
20271;SDS011;10295;49.812;9.866;2022-10-22T13:11:55;6.43;;;1.00;;
20271;SDS011;10295;49.812;9.866;2022-10-22T13:22:26;5.20;;;0.80;;
20271;SDS011;10295;49.812;9.866;2022-10-22T13:24:54;5.97;;;0.95;;
20271;SDS011;10295;49.812;9.866;2022-10-22T13:27:26;3.65;;;0.88;;
20271;SDS011;10295;49.812;9.866;2022-10-22T13:29:54;6.43;;;0.85;;
20271;SDS011;10295;49.812;9.866;2022-10-22T13:34:49;3.95;;;1.02;;
20271;SDS011;10295;49.812;9.866;2022-10-22T13:37:16;4.05;;;0.90;;
20271;SDS011;10295;49.812;9.866;2022-10-22T13:39:43;3.50;;;0.82;;
20271;SDS011;10295;49.812;9.866;2022-10-22T13:42:11;3.83;;;0.95;;
20271;SDS011;10295;49.812;9.866;2022-10-22T13:44:38;5.13;;;1.02;;
20271;SDS011;10295;49.812;9.866;2022-10-22T13:47:25;9.15;;;1.30;;
20271;SDS011;10295;49.812;9.866;2022-10-22T13:49:53;5.18;;;0.90;;
20271;SDS011;10295;49.812;9.866;2022-10-22T13:52:27;5.60;;;0.80;;
20271;SDS011;10295;49.812;9.866;2022-10-22T13:54:54;5.93;;;1.00;;
20271;SDS011;10295;49.812;9.866;2022-10-22T13:57:22;6.78;;;1.00;;
20271;SDS011;10295;49.812;9.866;2022-10-22T13:59:49;4.65;;;1.00;;
20271;SDS011;10295;49.812;9.866;2022-10-22T14:02:16;5.65;;;1.55;;
20271;SDS011;10295;49.812;9.866;2022-10-22T14:04:44;3.78;;;0.90;;
20271;SDS011;10295;49.812;9.866;2022-10-22T14:07:14;5.65;;;1.00;;
20271;SDS011;10295;49.812;9.866;2022-10-22T14:09:42;4.70;;;1.00;;
20271;SDS011;10295;49.812;9.866;2022-10-22T14:12:13;6.30;;;1.00;;
20271;SDS011;10295;49.812;9.866;2022-10-22T14:14:41;5.68;;;1.10;;
20271;SDS011;10295;49.812;9.866;2022-10-22T14:17:12;4.60;;;1.13;;
20271;SDS011;10295;49.812;9.866;2022-10-22T14:19:44;4.63;;;0.98;;
20271;SDS011;10295;49.812;9.866;2022-10-22T14:22:14;6.78;;;1.00;;
20271;SDS011;10295;49.812;9.866;2022-10-22T14:24:41;5.45;;;1.10;;
20271;SDS011;10295;49.812;9.866;2022-10-22T14:27:09;3.75;;;1.00;;
20271;SDS011;10295;49.812;9.866;2022-10-22T14:29:37;6.45;;;1.10;;
20271;SDS011;10295;49.812;9.866;2022-10-22T14:32:11;4.50;;;1.00;;
20271;SDS011;10295;49.812;9.866;2022-10-22T14:34:39;5.65;;;0.95;;
20271;SDS011;10295;49.812;9.866;2022-10-22T14:37:16;4.28;;;0.90;;
20271;SDS011;10295;49.812;9.866;2022-10-22T14:39:44;6.95;;;1.30;;
20271;SDS011;10295;49.812;9.866;2022-10-22T14:42:17;5.32;;;1.02;;
20271;SDS011;10295;49.812;9.866;2022-10-22T14:44:45;9.55;;;1.17;;
20271;SDS011;10295;49.812;9.866;2022-10-22T14:47:13;12.63;;;1.40;;
20271;SDS011;10295;49.812;9.866;2022-10-22T14:49:40;12.77;;;1.40;;
20271;SDS011;10295;49.812;9.866;2022-10-22T14:52:07;9.25;;;1.17;;
20271;SDS011;10295;49.812;9.866;2022-10-22T14:54:39;8.00;;;1.30;;
20271;SDS011;10295;49.812;9.866;2022-10-22T14:57:06;8.55;;;1.38;;
20271;SDS011;10295;49.812;9.866;2022-10-22T14:59:36;12.48;;;1.50;;
20271;SDS011;10295;49.812;9.866;2022-10-22T15:02:03;18.35;;;2.00;;
20271;SDS011;10295;49.812;9.866;2022-10-22T15:04:30;15.20;;;1.85;;
20271;SDS011;10295;49.812;9.866;2022-10-22T15:06:57;7.32;;;1.40;;
20271;SDS011;10295;49.812;9.866;2022-10-22T15:09:24;8.88;;;1.17;;
20271;SDS011;10295;49.812;9.866;2022-10-22T15:11:51;4.90;;;1.17;;
20271;SDS011;10295;49.812;9.866;2022-10-22T15:14:19;7.38;;;1.40;;
20271;SDS011;10295;49.812;9.866;2022-10-22T15:16:46;5.85;;;1.17;;
20271;SDS011;10295;49.812;9.866;2022-10-22T15:19:13;6.57;;;1.02;;
20271;SDS011;10295;49.812;9.866;2022-10-22T15:21:40;8.60;;;1.35;;
20271;SDS011;10295;49.812;9.866;2022-10-22T15:24:12;6.28;;;1.20;;
20271;SDS011;10295;49.812;9.866;2022-10-22T15:26:39;6.93;;;1.33;;
20271;SDS011;10295;49.812;9.866;2022-10-22T15:29:06;6.88;;;1.20;;
20271;SDS011;10295;49.812;9.866;2022-10-22T15:32:07;4.47;;;1.15;;
20271;SDS011;10295;49.812;9.866;2022-10-22T15:34:29;11.00;;;1.70;;
20271;SDS011;10295;49.812;9.866;2022-10-22T15:36:57;14.50;;;1.60;;
20271;SDS011;10295;49.812;9.866;2022-10-22T15:39:25;10.43;;;1.80;;
20271;SDS011;10295;49.812;9.866;2022-10-22T15:41:52;6.75;;;1.60;;
20271;SDS011;10295;49.812;9.866;2022-10-22T15:44:24;11.10;;;1.30;;
20271;SDS011;10295;49.812;9.866;2022-10-22T15:46:51;6.82;;;0.93;;
20271;SDS011;10295;49.812;9.866;2022-10-22T15:49:22;8.60;;;1.65;;
20271;SDS011;10295;49.812;9.866;2022-10-22T15:51:49;7.65;;;1.50;;
20271;SDS011;10295;49.812;9.866;2022-10-22T15:54:17;7.97;;;1.30;;
20271;SDS011;10295;49.812;9.866;2022-10-22T15:56:44;6.75;;;1.20;;
20271;SDS011;10295;49.812;9.866;2022-10-22T15:59:12;4.97;;;1.20;;
20271;SDS011;10295;49.812;9.866;2022-10-22T16:01:39;6.87;;;1.43;;
20271;SDS011;10295;49.812;9.866;2022-10-22T16:04:07;8.33;;;1.20;;
20271;SDS011;10295;49.812;9.866;2022-10-22T16:06:35;6.50;;;1.30;;
20271;SDS011;10295;49.812;9.866;2022-10-22T16:09:04;6.67;;;1.50;;
20271;SDS011;10295;49.812;9.866;2022-10-22T16:11:32;7.33;;;1.30;;
20271;SDS011;10295;49.812;9.866;2022-10-22T16:13:59;7.13;;;1.10;;
20271;SDS011;10295;49.812;9.866;2022-10-22T16:16:28;8.73;;;1.20;;
20271;SDS011;10295;49.812;9.866;2022-10-22T16:18:55;8.03;;;1.20;;
20271;SDS011;10295;49.812;9.866;2022-10-22T16:21:23;5.67;;;1.20;;
20271;SDS011;10295;49.812;9.866;2022-10-22T16:23:50;8.60;;;1.33;;
20271;SDS011;10295;49.812;9.866;2022-10-22T16:26:17;9.60;;;1.60;;
20271;SDS011;10295;49.812;9.866;2022-10-22T16:28:45;10.30;;;1.57;;
20271;SDS011;10295;49.812;9.866;2022-10-22T16:31:14;7.13;;;1.17;;
20271;SDS011;10295;49.812;9.866;2022-10-22T16:33:42;7.43;;;1.50;;
20271;SDS011;10295;49.812;9.866;2022-10-22T16:36:15;5.97;;;1.57;;
20271;SDS011;10295;49.812;9.866;2022-10-22T16:38:46;15.47;;;2.13;;
20271;SDS011;10295;49.812;9.866;2022-10-22T16:41:14;9.53;;;2.10;;
20271;SDS011;10295;49.812;9.866;2022-10-22T16:43:41;8.10;;;1.70;;